Terminal Aerodrome Forecast
Issued by NWS

Home | Current Version | Previous Version | Text Only | Print | Product List | Glossary On
Versions: 1 2 3 4 5 6 7 8 9 10 11 12 13 14 15 16 17 18 19 20 21 22
000
FTUS43 KBIS 061734
TAFJMS
TAF
KJMS 061734Z 0618/0718 04009KT 6SM FU SCT025 BKN110
     FM062100 35015G21KT 6SM FU SCT050
     FM070300 VRB03KT 3SM FU SKC
     FM071500 21006KT 6SM FU SKC=

USA.gov is the U.S. government's official web portal to all federal, state and local government web resources and services.